createdAt,value
2022-08-30T00:02:02.734Z,11.37
2022-08-30T00:04:29.759Z,11.35
2022-08-30T00:06:56.622Z,11.32
2022-08-30T00:09:23.551Z,11.28
2022-08-30T00:11:52.188Z,11.23
2022-08-30T00:14:20.473Z,11.20
2022-08-30T00:16:47.375Z,11.18
2022-08-30T00:19:14.581Z,11.17
2022-08-30T00:21:41.646Z,11.14
2022-08-30T00:24:09.002Z,11.12
2022-08-30T00:26:35.827Z,11.08
2022-08-30T00:29:03.628Z,11.04
2022-08-30T00:31:30.474Z,11.01
2022-08-30T00:33:57.360Z,10.99
2022-08-30T00:36:24.272Z,10.99
2022-08-30T00:38:51.098Z,11.00
2022-08-30T00:41:17.930Z,11.00
2022-08-30T00:43:44.718Z,10.97
2022-08-30T00:46:11.605Z,10.95
2022-08-30T00:48:43.145Z,10.91
2022-08-30T00:51:12.885Z,10.86
2022-08-30T00:53:44.880Z,10.82
2022-08-30T00:56:12.359Z,10.79
2022-08-30T00:58:44.166Z,10.73
2022-08-30T01:01:11.558Z,10.67
2022-08-30T01:03:39.648Z,10.63
2022-08-30T01:06:07.781Z,10.60
2022-08-30T01:08:35.390Z,10.58
2022-08-30T01:11:04.119Z,10.57
2022-08-30T01:13:32.536Z,10.58
2022-08-30T01:16:00.237Z,10.59
2022-08-30T01:18:28.737Z,10.60
2022-08-30T01:21:07.100Z,10.59
2022-08-30T01:23:38.435Z,10.58
2022-08-30T01:26:06.835Z,10.53
2022-08-30T01:28:34.648Z,10.51
2022-08-30T01:31:01.960Z,10.50
2022-08-30T01:33:29.007Z,10.49
2022-08-30T01:35:59.091Z,10.47
2022-08-30T01:38:34.742Z,10.40
2022-08-30T01:41:12.522Z,10.33
2022-08-30T01:43:40.154Z,10.27
2022-08-30T01:46:07.345Z,10.24
2022-08-30T01:48:34.435Z,10.22
2022-08-30T01:51:02.968Z,10.21
2022-08-30T01:53:30.368Z,10.22
2022-08-30T01:55:57.426Z,10.24
2022-08-30T01:58:24.953Z,10.26
2022-08-30T02:00:52.013Z,10.26
2022-08-30T02:03:20.071Z,10.23
2022-08-30T02:05:48.499Z,10.20
2022-08-30T02:08:15.540Z,10.15
2022-08-30T02:10:42.593Z,10.08
2022-08-30T02:13:09.801Z,10.02
2022-08-30T02:15:41.596Z,9.99
2022-08-30T02:18:10.885Z,9.96
2022-08-30T02:20:39.950Z,9.93
2022-08-30T02:23:06.816Z,9.92
2022-08-30T02:25:33.828Z,9.93
2022-08-30T02:28:00.683Z,9.93
2022-08-30T02:30:28.360Z,9.93
2022-08-30T02:32:55.234Z,9.92
2022-08-30T02:35:22.729Z,9.90
2022-08-30T02:37:49.757Z,9.85
2022-08-30T02:40:18.405Z,9.80
2022-08-30T02:42:45.268Z,9.76
2022-08-30T02:45:12.232Z,9.73
2022-08-30T02:47:41.634Z,9.72
2022-08-30T02:50:11.979Z,9.73
2022-08-30T02:52:38.908Z,9.73
2022-08-30T02:55:07.007Z,9.70
2022-08-30T02:57:33.959Z,9.69
2022-08-30T03:00:01.455Z,9.70
2022-08-30T03:02:29.194Z,9.71
2022-08-30T03:04:57.631Z,9.74
2022-08-30T03:07:24.539Z,9.77
2022-08-30T03:09:51.367Z,9.76
2022-08-30T03:12:18.787Z,9.69
2022-08-30T03:14:45.601Z,9.67
2022-08-30T03:17:15.330Z,9.68
2022-08-30T03:19:44.372Z,9.70
2022-08-30T03:22:11.354Z,9.72
2022-08-30T03:24:39.051Z,9.75
2022-08-30T03:27:06.086Z,9.78
2022-08-30T03:29:33.238Z,9.79
2022-08-30T03:32:00.491Z,9.78
2022-08-30T03:34:28.200Z,9.77
2022-08-30T03:36:56.770Z,9.73
2022-08-30T03:39:25.275Z,9.69
2022-08-30T03:41:52.130Z,9.67
2022-08-30T03:44:19.569Z,9.66
2022-08-30T03:46:47.604Z,9.64
2022-08-30T03:49:14.728Z,9.62
2022-08-30T03:51:41.707Z,9.62
2022-08-30T03:54:09.358Z,9.61
2022-08-30T03:56:37.174Z,9.61
2022-08-30T03:59:04.218Z,9.60
2022-08-30T04:01:31.126Z,9.60
2022-08-30T04:03:57.998Z,9.62
2022-08-30T04:06:24.915Z,9.65
2022-08-30T04:08:51.894Z,9.65
2022-08-30T04:11:18.916Z,9.64
2022-08-30T04:13:46.503Z,9.65
2022-08-30T04:16:13.506Z,9.65
2022-08-30T04:18:40.534Z,9.67
2022-08-30T04:21:09.514Z,9.70
2022-08-30T04:23:39.278Z,9.73
2022-08-30T04:26:06.222Z,9.76
2022-08-30T04:28:35.229Z,9.79
2022-08-30T04:31:11.666Z,9.82
2022-08-30T04:33:39.525Z,9.83
2022-08-30T04:36:08.435Z,9.83
2022-08-30T04:38:37.033Z,9.86
2022-08-30T04:41:09.172Z,9.92
2022-08-30T04:43:35.974Z,9.98
2022-08-30T04:46:06.768Z,10.04
2022-08-30T04:48:34.544Z,10.09
2022-08-30T04:51:05.998Z,10.16
2022-08-30T04:53:33.482Z,10.23
2022-08-30T04:56:00.482Z,10.33
2022-08-30T04:58:27.595Z,10.44
2022-08-30T05:00:55.774Z,10.59
2022-08-30T05:03:22.628Z,10.71
2022-08-30T05:05:50.704Z,10.84
2022-08-30T05:08:23.322Z,10.96
2022-08-30T05:10:52.611Z,11.09
2022-08-30T05:13:25.957Z,11.23
2022-08-30T05:16:04.925Z,11.38
2022-08-30T05:18:32.398Z,11.55
2022-08-30T05:21:16.956Z,11.73
2022-08-30T05:23:44.521Z,11.93
2022-08-30T05:26:14.901Z,12.09
2022-08-30T05:28:42.484Z,12.23
2022-08-30T05:31:17.320Z,12.37
2022-08-30T05:33:44.729Z,12.54
2022-08-30T05:36:13.510Z,12.71
2022-08-30T05:38:40.875Z,12.89
2022-08-30T05:41:10.887Z,13.05
2022-08-30T05:43:38.911Z,13.21
2022-08-30T05:46:09.334Z,13.39
2022-08-30T05:48:37.083Z,13.58
2022-08-30T05:51:06.782Z,13.79
2022-08-30T05:53:34.579Z,14.05
2022-08-30T05:56:04.869Z,14.32
2022-08-30T05:58:32.928Z,14.59
2022-08-30T06:01:00.559Z,14.86
2022-08-30T06:03:28.295Z,15.08
2022-08-30T06:05:55.670Z,15.29
2022-08-30T06:08:22.518Z,15.54
2022-08-30T06:10:49.692Z,15.78
2022-08-30T06:13:16.545Z,16.00
2022-08-30T06:15:45.212Z,16.25
2022-08-30T06:18:12.913Z,16.45
2022-08-30T06:20:50.856Z,16.70
2022-08-30T06:23:18.168Z,16.98
2022-08-30T06:25:45.097Z,17.15
2022-08-30T06:28:13.228Z,17.32
2022-08-30T06:30:42.901Z,17.53
2022-08-30T06:33:10.729Z,17.76
2022-08-30T06:35:42.315Z,18.05
2022-08-30T06:38:23.827Z,18.36
2022-08-30T06:40:51.176Z,18.51
2022-08-30T06:43:18.077Z,18.62
2022-08-30T06:45:44.960Z,18.73
2022-08-30T06:48:12.516Z,18.88
2022-08-30T06:50:42.019Z,19.04
2022-08-30T06:53:09.944Z,19.22
2022-08-30T06:55:37.821Z,19.41
2022-08-30T06:58:05.005Z,19.66
2022-08-30T07:00:31.886Z,19.94
2022-08-30T07:02:59.210Z,20.26
2022-08-30T07:05:26.065Z,20.59
2022-08-30T07:07:54.423Z,20.81
2022-08-30T07:10:21.869Z,20.96
2022-08-30T07:12:49.286Z,21.20
2022-08-30T07:15:16.683Z,21.40
2022-08-30T07:17:59.402Z,21.66
2022-08-30T07:20:27.130Z,21.78
2022-08-30T07:22:53.945Z,21.97
2022-08-30T07:25:20.916Z,22.26
2022-08-30T07:27:47.768Z,22.45
2022-08-30T07:30:14.682Z,22.49
2022-08-30T07:32:41.579Z,22.55
2022-08-30T07:35:08.847Z,22.64
2022-08-30T07:37:35.832Z,22.78
2022-08-30T07:40:04.641Z,22.83
2022-08-30T07:42:31.605Z,22.96
2022-08-30T07:44:58.426Z,23.28
2022-08-30T07:47:25.262Z,23.61
2022-08-30T07:49:52.077Z,23.99
2022-08-30T07:52:18.896Z,24.44
2022-08-30T07:54:45.758Z,24.73
2022-08-30T07:57:12.627Z,24.72
2022-08-30T07:59:43.367Z,24.43
2022-08-30T08:02:10.382Z,24.33
2022-08-30T08:04:37.231Z,24.45
2022-08-30T08:07:04.289Z,24.76
2022-08-30T08:09:31.155Z,25.13
2022-08-30T08:11:58.116Z,25.35
2022-08-30T08:14:24.990Z,25.37
2022-08-30T08:16:52.344Z,25.48
2022-08-30T08:19:19.796Z,25.82
2022-08-30T08:21:46.865Z,26.15
2022-08-30T08:24:14.177Z,26.19
2022-08-30T08:26:45.293Z,26.17
2022-08-30T08:29:12.399Z,26.18
2022-08-30T08:31:41.656Z,26.22
2022-08-30T08:34:08.819Z,26.51
2022-08-30T08:36:36.331Z,26.70
2022-08-30T08:39:06.084Z,26.81
2022-08-30T08:41:50.527Z,27.11
2022-08-30T08:44:37.373Z,27.20
2022-08-30T08:47:11.625Z,27.17
2022-08-30T08:49:44.976Z,26.69
2022-08-30T08:52:35.484Z,26.56
2022-08-30T08:55:10.127Z,26.76
2022-08-30T08:57:37.704Z,27.07
2022-08-30T09:00:08.448Z,27.44
2022-08-30T09:02:43.545Z,27.73
2022-08-30T09:05:15.194Z,27.87
2022-08-30T09:07:47.843Z,27.92
2022-08-30T09:10:18.271Z,27.84
2022-08-30T09:12:47.289Z,27.49
2022-08-30T09:15:18.221Z,27.33
2022-08-30T09:18:02.156Z,27.20
2022-08-30T09:20:35.806Z,26.97
2022-08-30T09:23:18.620Z,27.08
2022-08-30T09:25:56.685Z,27.41
2022-08-30T09:28:27.608Z,27.88
2022-08-30T09:31:25.743Z,28.51
2022-08-30T09:33:55.389Z,29.00
2022-08-30T09:36:29.632Z,29.12
2022-08-30T09:39:01.817Z,29.13
2022-08-30T09:41:42.678Z,29.12
2022-08-30T09:44:15.687Z,28.98
2022-08-30T09:46:44.111Z,28.69
2022-08-30T09:49:30.489Z,28.36
2022-08-30T09:52:28.765Z,28.10
2022-08-30T09:55:28.110Z,28.10
2022-08-30T09:58:08.340Z,28.29
2022-08-30T10:00:46.652Z,28.43
2022-08-30T10:03:40.727Z,28.36
2022-08-30T10:06:29.131Z,28.05
2022-08-30T10:09:19.190Z,27.76
2022-08-30T10:12:08.450Z,27.46
2022-08-30T10:14:46.943Z,27.24
2022-08-30T10:17:41.977Z,27.26
2022-08-30T10:20:15.247Z,27.40
2022-08-30T10:22:50.297Z,27.26
2022-08-30T10:25:25.596Z,26.99
2022-08-30T10:28:00.445Z,26.70
2022-08-30T10:30:28.694Z,26.47
2022-08-30T10:33:03.941Z,26.18
2022-08-30T10:35:39.221Z,25.93
2022-08-30T10:38:15.308Z,25.83
2022-08-30T10:41:03.610Z,25.83
2022-08-30T10:43:40.589Z,25.88
2022-08-30T10:46:18.846Z,25.92
2022-08-30T10:48:48.632Z,26.24
2022-08-30T10:51:24.893Z,26.51
2022-08-30T10:54:01.008Z,26.59
2022-08-30T10:56:29.725Z,26.52
2022-08-30T10:58:59.201Z,26.28
2022-08-30T11:01:51.808Z,26.01
2022-08-30T11:04:45.943Z,25.85
2022-08-30T11:07:31.830Z,25.93
2022-08-30T11:10:07.465Z,26.10
2022-08-30T11:12:38.318Z,26.31
2022-08-30T11:15:15.181Z,26.57
2022-08-30T11:17:56.074Z,26.78
2022-08-30T11:20:34.571Z,26.65
2022-08-30T11:23:19.890Z,26.47
2022-08-30T11:25:57.410Z,26.47
2022-08-30T11:28:41.128Z,26.64
2022-08-30T11:31:29.203Z,26.84
2022-08-30T11:34:00.617Z,26.98
2022-08-30T11:36:37.908Z,27.17
2022-08-30T11:39:31.779Z,27.31
2022-08-30T11:42:30.123Z,27.63
2022-08-30T11:45:28.812Z,28.07
2022-08-30T11:47:59.793Z,28.44
2022-08-30T11:50:47.789Z,28.72
2022-08-30T11:53:15.919Z,29.10
2022-08-30T11:55:46.700Z,29.47
2022-08-30T11:58:36.667Z,30.02
2022-08-30T12:01:42.206Z,30.52
2022-08-30T12:04:25.757Z,31.06
2022-08-30T12:06:59.275Z,31.19
2022-08-30T12:09:27.135Z,31.29
2022-08-30T12:11:58.428Z,31.51
2022-08-30T12:14:57.783Z,31.74
2022-08-30T12:17:46.077Z,31.15
2022-08-30T12:20:31.085Z,30.76
2022-08-30T12:23:20.876Z,30.66
2022-08-30T12:25:48.213Z,30.81
2022-08-30T12:28:26.434Z,31.16
2022-08-30T12:30:53.594Z,31.36
2022-08-30T12:33:39.539Z,31.93
2022-08-30T12:36:13.710Z,32.72
2022-08-30T12:38:40.789Z,33.40
2022-08-30T12:41:07.884Z,33.79
2022-08-30T12:43:40.641Z,33.94
2022-08-30T12:46:15.100Z,34.28
2022-08-30T12:48:43.734Z,34.85
2022-08-30T12:51:28.465Z,35.30
2022-08-30T12:54:05.483Z,35.34
2022-08-30T12:57:19.044Z,35.59
2022-08-30T12:59:59.528Z,35.14
2022-08-30T13:02:47.428Z,34.42
2022-08-30T13:05:32.250Z,33.56
2022-08-30T13:08:15.642Z,32.65
2022-08-30T13:11:08.421Z,31.94
2022-08-30T13:13:38.868Z,31.75
2022-08-30T13:16:20.608Z,32.04
2022-08-30T13:18:50.424Z,32.50
2022-08-30T13:21:33.846Z,33.06
2022-08-30T13:24:05.118Z,33.68
2022-08-30T13:26:36.386Z,34.19
2022-08-30T13:29:10.457Z,34.70
2022-08-30T13:31:37.701Z,35.11
2022-08-30T13:34:05.234Z,35.44
2022-08-30T13:36:37.383Z,35.75
2022-08-30T13:39:05.680Z,36.01
2022-08-30T13:41:34.413Z,36.15
2022-08-30T13:44:13.387Z,36.25
2022-08-30T13:46:45.722Z,36.34
2022-08-30T13:52:26.838Z,36.51
2022-08-30T13:54:56.456Z,36.63
2022-08-30T14:00:19.581Z,36.51
2022-08-30T14:02:54.836Z,36.55
2022-08-30T14:11:01.531Z,36.83
2022-08-30T14:13:29.888Z,36.89
2022-08-30T14:18:46.678Z,37.00
2022-08-30T14:21:13.587Z,36.98
2022-08-30T14:23:40.483Z,36.95
2022-08-30T14:26:15.236Z,36.88
2022-08-30T14:28:44.970Z,36.52
2022-08-30T14:31:12.209Z,36.16
2022-08-30T14:33:40.379Z,35.67
2022-08-30T14:36:12.385Z,34.98
2022-08-30T14:38:42.703Z,34.03
2022-08-30T14:41:11.070Z,33.24
2022-08-30T14:43:40.746Z,32.63
2022-08-30T14:46:09.166Z,31.99
2022-08-30T14:48:38.404Z,31.48
2022-08-30T14:51:15.415Z,31.05
2022-08-30T14:53:42.929Z,30.65
2022-08-30T14:56:14.345Z,30.27
2022-08-30T14:58:41.311Z,29.91
2022-08-30T15:01:09.282Z,29.58
2022-08-30T15:03:38.432Z,29.31
2022-08-30T15:06:06.671Z,28.98
2022-08-30T15:08:35.589Z,28.69
2022-08-30T15:11:08.797Z,28.44
2022-08-30T15:13:35.982Z,28.12
2022-08-30T15:16:03.690Z,27.89
2022-08-30T15:18:30.757Z,27.62
2022-08-30T15:20:57.525Z,27.41
2022-08-30T15:23:24.799Z,27.22
2022-08-30T15:25:52.128Z,27.01
2022-08-30T15:28:19.474Z,26.88
2022-08-30T15:30:46.726Z,26.73
2022-08-30T15:33:13.702Z,26.58
2022-08-30T15:35:41.714Z,26.40
2022-08-30T15:38:08.868Z,26.20
2022-08-30T15:40:39.587Z,25.97
2022-08-30T15:43:07.156Z,25.76
2022-08-30T15:45:34.079Z,25.55
2022-08-30T15:48:01.585Z,25.33
2022-08-30T15:50:44.723Z,25.12
2022-08-30T15:53:11.815Z,24.88
2022-08-30T15:55:39.067Z,24.68
2022-08-30T15:58:05.873Z,24.49
2022-08-30T16:00:32.926Z,24.30
2022-08-30T16:03:00.418Z,24.12
2022-08-30T16:05:29.366Z,23.96
2022-08-30T16:07:56.173Z,23.81
2022-08-30T16:10:22.948Z,23.67
2022-08-30T16:12:49.874Z,23.50
2022-08-30T16:15:16.755Z,23.34
2022-08-30T16:17:44.755Z,23.17
2022-08-30T16:20:11.975Z,22.99
2022-08-30T16:22:38.845Z,22.82
2022-08-30T16:25:11.218Z,22.65
2022-08-30T16:27:42.896Z,22.47
2022-08-30T16:30:12.339Z,22.33
2022-08-30T16:32:39.780Z,22.16
2022-08-30T16:35:07.876Z,22.01
2022-08-30T16:37:34.835Z,21.87
2022-08-30T16:40:01.841Z,21.74
2022-08-30T16:42:28.753Z,21.65
2022-08-30T16:44:55.689Z,21.55
2022-08-30T16:47:22.561Z,21.47
2022-08-30T16:49:49.815Z,21.38
2022-08-30T16:52:17.339Z,21.29
2022-08-30T16:54:45.364Z,21.20
2022-08-30T16:57:12.402Z,21.10
2022-08-30T16:59:39.523Z,20.97
2022-08-30T17:02:06.790Z,20.88
2022-08-30T17:04:33.811Z,20.77
2022-08-30T17:07:00.933Z,20.68
2022-08-30T17:09:27.712Z,20.57
2022-08-30T17:11:54.566Z,20.45
2022-08-30T17:17:08.262Z,20.21
2022-08-30T17:19:41.236Z,20.11
2022-08-30T17:22:09.849Z,20.00
2022-08-30T17:24:38.535Z,19.91
2022-08-30T17:27:06.210Z,19.85
2022-08-30T17:29:33.624Z,19.78
2022-08-30T17:32:00.767Z,19.72
2022-08-30T17:34:28.188Z,19.64
2022-08-30T17:36:57.342Z,19.54
2022-08-30T17:39:24.784Z,19.42
2022-08-30T17:41:51.822Z,19.30
2022-08-30T17:44:21.867Z,19.16
2022-08-30T17:46:52.707Z,19.02
2022-08-30T17:49:19.782Z,18.89
2022-08-30T17:51:52.827Z,18.77
2022-08-30T17:54:24.522Z,18.65
2022-08-30T17:56:53.492Z,18.54
2022-08-30T17:59:25.118Z,18.43
2022-08-30T18:01:54.599Z,18.30
2022-08-30T18:04:24.952Z,18.16
2022-08-30T18:06:52.439Z,18.03
2022-08-30T18:09:19.493Z,17.91
2022-08-30T18:11:47.334Z,17.81
2022-08-30T18:14:16.729Z,17.69
2022-08-30T18:16:50.168Z,17.58
2022-08-30T18:19:24.393Z,17.48
2022-08-30T18:21:52.479Z,17.36
2022-08-30T18:24:19.632Z,17.25
2022-08-30T18:26:46.774Z,17.14
2022-08-30T18:29:14.217Z,17.06
2022-08-30T18:31:41.367Z,17.00
2022-08-30T18:34:12.480Z,16.94
2022-08-30T18:36:40.681Z,16.87
2022-08-30T18:39:08.542Z,16.78
2022-08-30T18:41:43.067Z,16.67
2022-08-30T18:44:26.762Z,16.54
2022-08-30T18:46:56.319Z,16.43
2022-08-30T18:49:26.274Z,16.33
2022-08-30T18:51:53.955Z,16.27
2022-08-30T18:54:20.906Z,16.23
2022-08-30T18:56:48.111Z,16.18
2022-08-30T18:59:16.238Z,16.12
2022-08-30T19:01:44.305Z,16.05
2022-08-30T19:04:22.148Z,15.97
2022-08-30T19:06:57.312Z,15.86
2022-08-30T19:09:24.359Z,15.77
2022-08-30T19:11:53.848Z,15.71
2022-08-30T19:14:20.677Z,15.65
2022-08-30T19:16:48.159Z,15.62
2022-08-30T19:19:15.664Z,15.55
2022-08-30T19:21:42.523Z,15.49
2022-08-30T19:24:09.543Z,15.43
2022-08-30T19:26:38.655Z,15.37
2022-08-30T19:29:06.938Z,15.31
2022-08-30T19:31:34.483Z,15.26
2022-08-30T19:34:01.282Z,15.22
2022-08-30T19:36:29.033Z,15.16
2022-08-30T19:38:56.128Z,15.09
2022-08-30T19:41:24.329Z,15.02
2022-08-30T19:43:51.716Z,14.96
2022-08-30T19:46:18.683Z,14.88
2022-08-30T19:48:45.597Z,14.82
2022-08-30T19:51:15.224Z,14.75
2022-08-30T19:53:43.920Z,14.69
2022-08-30T19:56:12.020Z,14.66
2022-08-30T19:58:38.950Z,14.63
2022-08-30T20:01:12.223Z,14.60
2022-08-30T20:03:47.567Z,14.56
2022-08-30T20:06:19.782Z,14.51
2022-08-30T20:08:47.295Z,14.45
2022-08-30T20:11:16.204Z,14.38
2022-08-30T20:13:43.755Z,14.35
2022-08-30T20:16:12.804Z,14.33
2022-08-30T20:18:42.696Z,14.31
2022-08-30T20:21:13.533Z,14.30
2022-08-30T20:23:42.193Z,14.28
2022-08-30T20:24:23.993Z,20.34
2022-08-30T20:26:11.877Z,14.27
2022-08-30T20:28:39.857Z,14.25
2022-08-30T20:31:08.147Z,14.23
2022-08-30T20:33:37.756Z,14.20
2022-08-30T20:36:06.631Z,14.15
2022-08-30T20:38:33.985Z,14.11
2022-08-30T20:41:02.752Z,14.05
2022-08-30T20:43:31.617Z,14.00
2022-08-30T20:45:58.990Z,13.95
2022-08-30T20:48:28.808Z,13.87
2022-08-30T20:50:55.801Z,13.85
2022-08-30T20:53:23.698Z,13.81
2022-08-30T20:55:50.923Z,13.78
2022-08-30T20:58:17.989Z,13.73
2022-08-30T21:00:50.064Z,13.69
2022-08-30T21:03:27.611Z,13.66
2022-08-30T21:05:56.360Z,13.64
2022-08-30T21:08:23.314Z,13.65
2022-08-30T21:10:50.261Z,13.68
2022-08-30T21:13:17.533Z,13.70
2022-08-30T21:15:46.322Z,13.72
2022-08-30T21:18:14.721Z,13.71
2022-08-30T21:20:42.444Z,13.68
2022-08-30T21:23:09.737Z,13.64
2022-08-30T21:25:40.009Z,13.61
2022-08-30T21:28:07.409Z,13.57
2022-08-30T21:30:35.952Z,13.54
2022-08-30T21:33:04.553Z,13.50
2022-08-30T21:35:47.285Z,13.45
2022-08-30T21:38:15.515Z,13.39
2022-08-30T21:40:42.790Z,13.34
2022-08-30T21:43:10.865Z,13.30
2022-08-30T21:45:39.507Z,13.27
2022-08-30T21:48:07.335Z,13.25
2022-08-30T21:50:35.182Z,13.21
2022-08-30T21:53:02.391Z,13.18
2022-08-30T21:55:29.221Z,13.13
2022-08-30T21:57:56.113Z,13.08
2022-08-30T22:00:23.145Z,13.04
2022-08-30T22:02:53.367Z,13.00
2022-08-30T22:05:20.765Z,12.99
2022-08-30T22:07:47.671Z,12.97
2022-08-30T22:10:15.052Z,12.92
2022-08-30T22:12:42.059Z,12.85
2022-08-30T22:15:09.840Z,12.79
2022-08-30T22:17:36.748Z,12.74
2022-08-30T22:20:06.185Z,12.69
2022-08-30T22:22:33.320Z,12.66
2022-08-30T22:25:00.800Z,12.62
2022-08-30T22:27:27.790Z,12.58
2022-08-30T22:29:54.734Z,12.52
2022-08-30T22:32:21.914Z,12.48
2022-08-30T22:34:50.032Z,12.45
2022-08-30T22:37:17.103Z,12.45
2022-08-30T22:39:44.027Z,12.47
2022-08-30T22:42:10.919Z,12.50
2022-08-30T22:44:37.810Z,12.52
2022-08-30T22:47:04.860Z,12.52
2022-08-30T22:49:32.079Z,12.49
2022-08-30T22:51:58.996Z,12.46
2022-08-30T22:54:25.968Z,12.41
2022-08-30T22:56:53.033Z,12.40
2022-08-30T22:59:20.379Z,12.38
2022-08-30T23:01:51.489Z,12.36
2022-08-30T23:04:18.488Z,12.34
2022-08-30T23:06:50.117Z,12.31
2022-08-30T23:09:17.533Z,12.29
2022-08-30T23:11:44.420Z,12.28
2022-08-30T23:14:11.265Z,12.30
2022-08-30T23:16:38.271Z,12.33
2022-08-30T23:19:05.738Z,12.39
2022-08-30T23:21:33.071Z,12.44
2022-08-30T23:24:15.800Z,12.46
2022-08-30T23:27:00.082Z,12.48
2022-08-30T23:29:42.861Z,12.46
2022-08-30T23:32:25.246Z,12.45
2022-08-30T23:35:07.477Z,12.45
2022-08-30T23:37:53.035Z,12.46
2022-08-30T23:40:37.289Z,12.47
2022-08-30T23:43:20.042Z,12.47
2022-08-30T23:46:02.902Z,12.46
2022-08-30T23:48:50.613Z,12.47
2022-08-30T23:51:35.168Z,12.42
2022-08-30T23:54:19.549Z,12.35
2022-08-30T23:57:01.820Z,12.29
2022-08-30T23:59:44.648Z,12.20
